sensor_id;sensor_type;location;lat;lon;timestamp;temperature;humidity
56861;DHT22;42744;51.094;3.490;2023-05-17T00:01:14;7.90;99.90
56861;DHT22;42744;51.094;3.490;2023-05-17T00:03:40;7.90;99.90
56861;DHT22;42744;51.094;3.490;2023-05-17T00:06:06;7.80;99.90
56861;DHT22;42744;51.094;3.490;2023-05-17T00:08:32;7.80;99.90
56861;DHT22;42744;51.094;3.490;2023-05-17T00:10:58;7.70;99.90
56861;DHT22;42744;51.094;3.490;2023-05-17T00:13:24;7.70;99.90
56861;DHT22;42744;51.094;3.490;2023-05-17T00:15:50;7.70;99.90
56861;DHT22;42744;51.094;3.490;2023-05-17T00:18:16;7.60;99.90
56861;DHT22;42744;51.094;3.490;2023-05-17T00:20:42;7.70;99.90
56861;DHT22;42744;51.094;3.490;2023-05-17T00:23:08;7.70;99.90
56861;DHT22;42744;51.094;3.490;2023-05-17T00:25:34;7.70;99.90
56861;DHT22;42744;51.094;3.490;2023-05-17T00:28:00;7.70;99.90
56861;DHT22;42744;51.094;3.490;2023-05-17T00:30:27;7.70;99.90
56861;DHT22;42744;51.094;3.490;2023-05-17T00:32:55;7.60;99.90
56861;DHT22;42744;51.094;3.490;2023-05-17T00:35:21;7.60;99.90
56861;DHT22;42744;51.094;3.490;2023-05-17T00:37:47;7.50;99.90
56861;DHT22;42744;51.094;3.490;2023-05-17T00:40:14;7.50;99.90
56861;DHT22;42744;51.094;3.490;2023-05-17T00:42:41;7.50;99.90
56861;DHT22;42744;51.094;3.490;2023-05-17T00:45:07;7.50;99.90
56861;DHT22;42744;51.094;3.490;2023-05-17T00:47:34;7.40;99.90
56861;DHT22;42744;51.094;3.490;2023-05-17T00:49:59;7.40;99.90
56861;DHT22;42744;51.094;3.490;2023-05-17T00:52:25;7.40;99.90
56861;DHT22;42744;51.094;3.490;2023-05-17T00:54:52;7.40;99.90
56861;DHT22;42744;51.094;3.490;2023-05-17T00:57:18;7.40;99.90
56861;DHT22;42744;51.094;3.490;2023-05-17T00:59:44;7.40;99.90
56861;DHT22;42744;51.094;3.490;2023-05-17T01:02:11;7.40;99.90
56861;DHT22;42744;51.094;3.490;2023-05-17T01:04:40;7.40;99.90
56861;DHT22;42744;51.094;3.490;2023-05-17T01:07:06;7.40;99.90
56861;DHT22;42744;51.094;3.490;2023-05-17T01:09:34;7.40;99.90
56861;DHT22;42744;51.094;3.490;2023-05-17T01:15:14;7.40;99.90
56861;DHT22;42744;51.094;3.490;2023-05-17T01:20:25;7.40;99.90
56861;DHT22;42744;51.094;3.490;2023-05-17T01:28:30;7.30;99.90
56861;DHT22;42744;51.094;3.490;2023-05-17T01:31:02;7.30;99.90
56861;DHT22;42744;51.094;3.490;2023-05-17T01:33:29;7.20;99.90
56861;DHT22;42744;51.094;3.490;2023-05-17T01:35:56;7.20;99.90
56861;DHT22;42744;51.094;3.490;2023-05-17T01:38:22;7.10;99.90
56861;DHT22;42744;51.094;3.490;2023-05-17T01:43:38;7.10;99.90
56861;DHT22;42744;51.094;3.490;2023-05-17T01:46:36;7.10;99.90
56861;DHT22;42744;51.094;3.490;2023-05-17T01:49:23;7.10;99.90
56861;DHT22;42744;51.094;3.490;2023-05-17T01:54:38;7.10;99.90
56861;DHT22;42744;51.094;3.490;2023-05-17T01:57:07;7.10;99.90
56861;DHT22;42744;51.094;3.490;2023-05-17T01:59:37;7.10;99.90
56861;DHT22;42744;51.094;3.490;2023-05-17T02:02:04;7.00;99.90
56861;DHT22;42744;51.094;3.490;2023-05-17T02:04:36;6.90;99.90
56861;DHT22;42744;51.094;3.490;2023-05-17T02:07:02;6.90;99.90
56861;DHT22;42744;51.094;3.490;2023-05-17T02:09:28;6.90;99.90
56861;DHT22;42744;51.094;3.490;2023-05-17T02:11:56;6.90;99.90
56861;DHT22;42744;51.094;3.490;2023-05-17T02:14:22;6.90;99.90
56861;DHT22;42744;51.094;3.490;2023-05-17T02:16:48;6.90;99.90
56861;DHT22;42744;51.094;3.490;2023-05-17T02:19:14;6.80;99.90
56861;DHT22;42744;51.094;3.490;2023-05-17T02:21:40;6.70;99.90
56861;DHT22;42744;51.094;3.490;2023-05-17T02:24:06;6.70;99.90
56861;DHT22;42744;51.094;3.490;2023-05-17T02:26:32;6.70;99.90
56861;DHT22;42744;51.094;3.490;2023-05-17T02:28:58;6.70;99.90
56861;DHT22;42744;51.094;3.490;2023-05-17T02:31:24;6.70;99.90
56861;DHT22;42744;51.094;3.490;2023-05-17T02:33:54;6.70;99.90
56861;DHT22;42744;51.094;3.490;2023-05-17T02:36:21;6.70;99.90
56861;DHT22;42744;51.094;3.490;2023-05-17T02:38:47;6.60;99.90
56861;DHT22;42744;51.094;3.490;2023-05-17T02:41:13;6.60;99.90
56861;DHT22;42744;51.094;3.490;2023-05-17T02:43:39;6.60;99.90
56861;DHT22;42744;51.094;3.490;2023-05-17T02:46:05;6.60;99.90
56861;DHT22;42744;51.094;3.490;2023-05-17T02:48:31;6.40;99.90
56861;DHT22;42744;51.094;3.490;2023-05-17T02:50:58;6.40;99.90
56861;DHT22;42744;51.094;3.490;2023-05-17T02:53:24;6.40;99.90
56861;DHT22;42744;51.094;3.490;2023-05-17T02:55:50;6.50;99.90
56861;DHT22;42744;51.094;3.490;2023-05-17T02:58:16;6.50;99.90
56861;DHT22;42744;51.094;3.490;2023-05-17T03:00:45;6.50;99.90
56861;DHT22;42744;51.094;3.490;2023-05-17T03:03:12;6.40;99.90
56861;DHT22;42744;51.094;3.490;2023-05-17T03:05:38;6.30;99.90
56861;DHT22;42744;51.094;3.490;2023-05-17T03:08:04;6.30;99.90
56861;DHT22;42744;51.094;3.490;2023-05-17T03:10:30;6.40;99.90
56861;DHT22;42744;51.094;3.490;2023-05-17T03:12:56;6.40;99.90
56861;DHT22;42744;51.094;3.490;2023-05-17T03:15:23;6.40;99.90
56861;DHT22;42744;51.094;3.490;2023-05-17T03:17:51;6.40;99.90
56861;DHT22;42744;51.094;3.490;2023-05-17T03:20:18;6.40;99.90
56861;DHT22;42744;51.094;3.490;2023-05-17T03:22:44;6.40;99.90
56861;DHT22;42744;51.094;3.490;2023-05-17T03:25:10;6.40;99.90
56861;DHT22;42744;51.094;3.490;2023-05-17T03:27:36;6.40;99.90
56861;DHT22;42744;51.094;3.490;2023-05-17T03:30:04;6.30;99.90
56861;DHT22;42744;51.094;3.490;2023-05-17T03:32:31;6.30;99.90
56861;DHT22;42744;51.094;3.490;2023-05-17T03:34:58;6.30;99.90
56861;DHT22;42744;51.094;3.490;2023-05-17T03:37:24;6.30;99.90
56861;DHT22;42744;51.094;3.490;2023-05-17T03:39:50;6.30;99.90
56861;DHT22;42744;51.094;3.490;2023-05-17T03:42:17;6.30;99.90
56861;DHT22;42744;51.094;3.490;2023-05-17T03:44:43;6.30;99.90
56861;DHT22;42744;51.094;3.490;2023-05-17T03:47:09;6.30;99.90
56861;DHT22;42744;51.094;3.490;2023-05-17T03:49:36;6.30;99.90
56861;DHT22;42744;51.094;3.490;2023-05-17T03:52:02;6.30;99.90
56861;DHT22;42744;51.094;3.490;2023-05-17T03:54:28;6.30;99.90
56861;DHT22;42744;51.094;3.490;2023-05-17T03:56:55;6.30;99.90
56861;DHT22;42744;51.094;3.490;2023-05-17T03:59:22;6.40;99.90
56861;DHT22;42744;51.094;3.490;2023-05-17T04:01:48;6.40;99.90
56861;DHT22;42744;51.094;3.490;2023-05-17T04:04:14;6.50;99.90
56861;DHT22;42744;51.094;3.490;2023-05-17T04:06:40;6.60;99.90
56861;DHT22;42744;51.094;3.490;2023-05-17T04:09:11;6.60;99.90
56861;DHT22;42744;51.094;3.490;2023-05-17T04:11:41;6.60;99.90
56861;DHT22;42744;51.094;3.490;2023-05-17T04:14:09;6.70;99.90
56861;DHT22;42744;51.094;3.490;2023-05-17T04:16:35;6.80;99.90
56861;DHT22;42744;51.094;3.490;2023-05-17T04:19:02;6.80;99.90
56861;DHT22;42744;51.094;3.490;2023-05-17T04:21:28;6.80;99.90
56861;DHT22;42744;51.094;3.490;2023-05-17T04:23:55;6.90;99.90
56861;DHT22;42744;51.094;3.490;2023-05-17T04:26:22;6.90;99.90
56861;DHT22;42744;51.094;3.490;2023-05-17T04:28:48;7.00;99.90
56861;DHT22;42744;51.094;3.490;2023-05-17T04:31:15;7.00;99.90
56861;DHT22;42744;51.094;3.490;2023-05-17T04:33:44;7.10;99.90
56861;DHT22;42744;51.094;3.490;2023-05-17T04:36:10;7.20;99.90
56861;DHT22;42744;51.094;3.490;2023-05-17T04:38:36;7.20;99.90
56861;DHT22;42744;51.094;3.490;2023-05-17T04:41:04;7.30;99.90
56861;DHT22;42744;51.094;3.490;2023-05-17T04:43:31;7.30;99.90
56861;DHT22;42744;51.094;3.490;2023-05-17T04:45:58;7.40;99.90
56861;DHT22;42744;51.094;3.490;2023-05-17T04:48:26;7.40;99.90
56861;DHT22;42744;51.094;3.490;2023-05-17T04:50:52;7.50;99.90
56861;DHT22;42744;51.094;3.490;2023-05-17T04:53:19;7.50;99.90
56861;DHT22;42744;51.094;3.490;2023-05-17T04:55:45;7.50;99.90
56861;DHT22;42744;51.094;3.490;2023-05-17T04:58:14;7.60;99.90
56861;DHT22;42744;51.094;3.490;2023-05-17T05:00:41;7.70;99.90
56861;DHT22;42744;51.094;3.490;2023-05-17T05:03:08;7.70;99.90
56861;DHT22;42744;51.094;3.490;2023-05-17T05:05:34;7.80;99.90
56861;DHT22;42744;51.094;3.490;2023-05-17T05:08:00;7.80;99.90
56861;DHT22;42744;51.094;3.490;2023-05-17T05:10:27;7.90;99.90
56861;DHT22;42744;51.094;3.490;2023-05-17T05:12:53;8.00;99.90
56861;DHT22;42744;51.094;3.490;2023-05-17T05:15:19;8.00;99.90
56861;DHT22;42744;51.094;3.490;2023-05-17T05:17:51;8.10;99.90
56861;DHT22;42744;51.094;3.490;2023-05-17T05:20:18;8.20;99.90
56861;DHT22;42744;51.094;3.490;2023-05-17T05:22:44;8.20;99.90
56861;DHT22;42744;51.094;3.490;2023-05-17T05:25:10;8.30;99.90
56861;DHT22;42744;51.094;3.490;2023-05-17T05:27:36;8.30;99.90
56861;DHT22;42744;51.094;3.490;2023-05-17T05:30:03;8.40;99.90
56861;DHT22;42744;51.094;3.490;2023-05-17T05:32:30;8.50;99.90
56861;DHT22;42744;51.094;3.490;2023-05-17T05:34:56;8.50;99.90
56861;DHT22;42744;51.094;3.490;2023-05-17T05:37:22;8.60;99.90
56861;DHT22;42744;51.094;3.490;2023-05-17T05:39:48;8.60;99.90
56861;DHT22;42744;51.094;3.490;2023-05-17T05:42:15;8.70;99.90
56861;DHT22;42744;51.094;3.490;2023-05-17T05:44:41;8.80;99.90
56861;DHT22;42744;51.094;3.490;2023-05-17T05:47:07;8.90;99.90
56861;DHT22;42744;51.094;3.490;2023-05-17T05:49:34;8.90;99.90
56861;DHT22;42744;51.094;3.490;2023-05-17T05:52:00;9.00;99.90
56861;DHT22;42744;51.094;3.490;2023-05-17T05:54:28;9.00;99.90
56861;DHT22;42744;51.094;3.490;2023-05-17T05:56:54;9.10;99.90
56861;DHT22;42744;51.094;3.490;2023-05-17T05:59:21;9.20;99.90
56861;DHT22;42744;51.094;3.490;2023-05-17T06:01:47;9.30;99.90
56861;DHT22;42744;51.094;3.490;2023-05-17T06:04:13;9.40;99.90
56861;DHT22;42744;51.094;3.490;2023-05-17T06:06:39;9.40;99.90
56861;DHT22;42744;51.094;3.490;2023-05-17T06:09:05;9.50;99.90
56861;DHT22;42744;51.094;3.490;2023-05-17T06:11:32;9.60;99.90
56861;DHT22;42744;51.094;3.490;2023-05-17T06:13:58;9.80;99.90
56861;DHT22;42744;51.094;3.490;2023-05-17T06:16:23;9.90;99.90
56861;DHT22;42744;51.094;3.490;2023-05-17T06:18:50;10.00;99.90
56861;DHT22;42744;51.094;3.490;2023-05-17T06:21:15;10.10;99.90
56861;DHT22;42744;51.094;3.490;2023-05-17T06:23:42;10.10;99.90
56861;DHT22;42744;51.094;3.490;2023-05-17T06:26:09;10.20;99.90
56861;DHT22;42744;51.094;3.490;2023-05-17T06:28:36;10.30;99.90
56861;DHT22;42744;51.094;3.490;2023-05-17T06:31:02;10.30;99.90
56861;DHT22;42744;51.094;3.490;2023-05-17T06:33:28;10.40;99.90
56861;DHT22;42744;51.094;3.490;2023-05-17T06:35:54;10.50;99.90
56861;DHT22;42744;51.094;3.490;2023-05-17T06:38:21;10.60;99.90
56861;DHT22;42744;51.094;3.490;2023-05-17T06:40:51;10.70;99.90
56861;DHT22;42744;51.094;3.490;2023-05-17T06:43:18;10.80;99.90
56861;DHT22;42744;51.094;3.490;2023-05-17T06:45:44;10.90;99.90
56861;DHT22;42744;51.094;3.490;2023-05-17T06:48:11;11.00;99.90
56861;DHT22;42744;51.094;3.490;2023-05-17T06:50:37;11.20;99.90
56861;DHT22;42744;51.094;3.490;2023-05-17T06:53:03;11.30;99.90
56861;DHT22;42744;51.094;3.490;2023-05-17T06:55:29;11.40;99.90
56861;DHT22;42744;51.094;3.490;2023-05-17T06:57:55;11.40;99.90
56861;DHT22;42744;51.094;3.490;2023-05-17T07:00:21;11.50;99.90
56861;DHT22;42744;51.094;3.490;2023-05-17T07:02:47;11.60;99.90
56861;DHT22;42744;51.094;3.490;2023-05-17T07:05:13;11.70;99.90
56861;DHT22;42744;51.094;3.490;2023-05-17T07:07:39;11.70;99.90
56861;DHT22;42744;51.094;3.490;2023-05-17T07:10:06;11.80;99.90
56861;DHT22;42744;51.094;3.490;2023-05-17T07:12:32;11.80;99.90
56861;DHT22;42744;51.094;3.490;2023-05-17T07:14:58;11.80;99.90
56861;DHT22;42744;51.094;3.490;2023-05-17T07:17:24;11.80;99.90
56861;DHT22;42744;51.094;3.490;2023-05-17T07:19:50;11.80;99.90
56861;DHT22;42744;51.094;3.490;2023-05-17T07:22:17;11.90;99.90
56861;DHT22;42744;51.094;3.490;2023-05-17T07:24:44;12.00;99.90
56861;DHT22;42744;51.094;3.490;2023-05-17T07:27:10;12.10;99.90
56861;DHT22;42744;51.094;3.490;2023-05-17T07:29:37;12.20;99.90
56861;DHT22;42744;51.094;3.490;2023-05-17T07:32:03;12.30;99.90
56861;DHT22;42744;51.094;3.490;2023-05-17T07:34:29;12.40;99.90
56861;DHT22;42744;51.094;3.490;2023-05-17T07:36:55;12.50;99.90
56861;DHT22;42744;51.094;3.490;2023-05-17T07:39:21;12.50;99.90
56861;DHT22;42744;51.094;3.490;2023-05-17T07:41:47;12.50;99.90
56861;DHT22;42744;51.094;3.490;2023-05-17T07:44:13;12.50;99.90
56861;DHT22;42744;51.094;3.490;2023-05-17T07:46:39;12.60;99.90
56861;DHT22;42744;51.094;3.490;2023-05-17T07:49:05;12.60;99.90
56861;DHT22;42744;51.094;3.490;2023-05-17T07:51:31;12.70;99.90
56861;DHT22;42744;51.094;3.490;2023-05-17T07:53:57;12.70;99.90
56861;DHT22;42744;51.094;3.490;2023-05-17T07:56:23;12.80;99.90
56861;DHT22;42744;51.094;3.490;2023-05-17T07:58:49;12.90;99.90
56861;DHT22;42744;51.094;3.490;2023-05-17T08:01:15;12.90;99.90
56861;DHT22;42744;51.094;3.490;2023-05-17T08:03:42;13.10;99.90
56861;DHT22;42744;51.094;3.490;2023-05-17T08:06:15;13.20;99.90
56861;DHT22;42744;51.094;3.490;2023-05-17T08:08:42;13.30;99.90
56861;DHT22;42744;51.094;3.490;2023-05-17T08:11:09;13.40;99.90
56861;DHT22;42744;51.094;3.490;2023-05-17T08:13:36;13.50;99.90
56861;DHT22;42744;51.094;3.490;2023-05-17T08:16:02;13.50;99.90
56861;DHT22;42744;51.094;3.490;2023-05-17T08:18:32;13.50;99.90
56861;DHT22;42744;51.094;3.490;2023-05-17T08:20:58;13.60;99.90
56861;DHT22;42744;51.094;3.490;2023-05-17T08:23:25;13.60;99.90
56861;DHT22;42744;51.094;3.490;2023-05-17T08:25:50;13.50;99.90
56861;DHT22;42744;51.094;3.490;2023-05-17T08:28:17;13.50;99.90
56861;DHT22;42744;51.094;3.490;2023-05-17T08:30:43;13.70;99.90
56861;DHT22;42744;51.094;3.490;2023-05-17T08:33:09;13.80;99.90
56861;DHT22;42744;51.094;3.490;2023-05-17T08:35:36;14.00;99.90
56861;DHT22;42744;51.094;3.490;2023-05-17T08:38:02;14.10;99.90
56861;DHT22;42744;51.094;3.490;2023-05-17T08:40:28;14.00;99.90
56861;DHT22;42744;51.094;3.490;2023-05-17T08:42:54;14.00;99.90
56861;DHT22;42744;51.094;3.490;2023-05-17T08:45:21;13.90;99.90
56861;DHT22;42744;51.094;3.490;2023-05-17T08:47:47;13.70;99.90
56861;DHT22;42744;51.094;3.490;2023-05-17T08:50:13;13.60;99.90
56861;DHT22;42744;51.094;3.490;2023-05-17T08:52:43;13.60;99.90
56861;DHT22;42744;51.094;3.490;2023-05-17T08:55:09;13.80;99.90
56861;DHT22;42744;51.094;3.490;2023-05-17T08:57:36;14.00;99.90
56861;DHT22;42744;51.094;3.490;2023-05-17T09:00:04;14.10;99.90
56861;DHT22;42744;51.094;3.490;2023-05-17T09:02:40;14.20;99.90
56861;DHT22;42744;51.094;3.490;2023-05-17T09:05:08;14.30;99.90
56861;DHT22;42744;51.094;3.490;2023-05-17T09:07:34;14.40;99.90
56861;DHT22;42744;51.094;3.490;2023-05-17T09:10:01;14.50;99.90
56861;DHT22;42744;51.094;3.490;2023-05-17T09:12:31;14.50;99.90
56861;DHT22;42744;51.094;3.490;2023-05-17T09:15:19;14.40;99.90
56861;DHT22;42744;51.094;3.490;2023-05-17T09:17:57;14.20;99.90
56861;DHT22;42744;51.094;3.490;2023-05-17T09:20:25;14.30;99.90
56861;DHT22;42744;51.094;3.490;2023-05-17T09:22:59;14.50;99.90
56861;DHT22;42744;51.094;3.490;2023-05-17T09:25:27;14.70;99.90
56861;DHT22;42744;51.094;3.490;2023-05-17T09:27:53;14.90;99.90
56861;DHT22;42744;51.094;3.490;2023-05-17T09:30:26;14.90;99.90
56861;DHT22;42744;51.094;3.490;2023-05-17T09:32:52;14.90;99.90
56861;DHT22;42744;51.094;3.490;2023-05-17T09:35:30;15.00;99.90
56861;DHT22;42744;51.094;3.490;2023-05-17T09:40:30;15.00;99.90
56861;DHT22;42744;51.094;3.490;2023-05-17T09:42:57;15.00;99.90
56861;DHT22;42744;51.094;3.490;2023-05-17T09:45:24;15.10;99.90
56861;DHT22;42744;51.094;3.490;2023-05-17T09:47:51;15.20;99.90
56861;DHT22;42744;51.094;3.490;2023-05-17T09:50:18;15.30;99.90
56861;DHT22;42744;51.094;3.490;2023-05-17T09:52:44;15.50;99.90
56861;DHT22;42744;51.094;3.490;2023-05-17T09:55:11;15.60;99.90
56861;DHT22;42744;51.094;3.490;2023-05-17T09:57:39;15.70;99.90
56861;DHT22;42744;51.094;3.490;2023-05-17T10:00:06;15.80;99.90
56861;DHT22;42744;51.094;3.490;2023-05-17T10:02:39;16.00;99.90
56861;DHT22;42744;51.094;3.490;2023-05-17T10:05:10;16.10;99.90
56861;DHT22;42744;51.094;3.490;2023-05-17T10:07:40;16.00;99.90
56861;DHT22;42744;51.094;3.490;2023-05-17T10:10:06;16.00;99.90
56861;DHT22;42744;51.094;3.490;2023-05-17T10:12:33;15.80;99.90
56861;DHT22;42744;51.094;3.490;2023-05-17T10:15:01;15.80;99.90
56861;DHT22;42744;51.094;3.490;2023-05-17T10:17:27;16.00;99.90
56861;DHT22;42744;51.094;3.490;2023-05-17T10:19:56;16.10;99.90
56861;DHT22;42744;51.094;3.490;2023-05-17T10:22:23;16.30;99.90
56861;DHT22;42744;51.094;3.490;2023-05-17T10:24:50;16.50;99.90
56861;DHT22;42744;51.094;3.490;2023-05-17T10:27:16;16.50;99.90
56861;DHT22;42744;51.094;3.490;2023-05-17T10:29:43;16.60;99.90
56861;DHT22;42744;51.094;3.490;2023-05-17T10:32:13;16.60;99.90
56861;DHT22;42744;51.094;3.490;2023-05-17T10:34:39;16.50;99.90
56861;DHT22;42744;51.094;3.490;2023-05-17T10:37:06;16.50;99.90
56861;DHT22;42744;51.094;3.490;2023-05-17T10:39:33;16.60;99.90
56861;DHT22;42744;51.094;3.490;2023-05-17T10:42:06;16.60;99.90
56861;DHT22;42744;51.094;3.490;2023-05-17T10:44:32;16.70;99.90
56861;DHT22;42744;51.094;3.490;2023-05-17T10:46:59;16.70;99.90
56861;DHT22;42744;51.094;3.490;2023-05-17T10:49:28;16.90;99.90
56861;DHT22;42744;51.094;3.490;2023-05-17T10:51:57;16.90;99.90
56861;DHT22;42744;51.094;3.490;2023-05-17T10:54:37;17.00;99.90
56861;DHT22;42744;51.094;3.490;2023-05-17T10:57:05;17.00;98.40
56861;DHT22;42744;51.094;3.490;2023-05-17T10:59:32;17.00;99.90
56861;DHT22;42744;51.094;3.490;2023-05-17T11:02:08;17.30;99.90
56861;DHT22;42744;51.094;3.490;2023-05-17T11:04:35;17.30;97.50
56861;DHT22;42744;51.094;3.490;2023-05-17T11:09:55;17.10;93.20
56861;DHT22;42744;51.094;3.490;2023-05-17T11:12:37;17.20;97.20
56861;DHT22;42744;51.094;3.490;2023-05-17T11:15:07;17.40;95.20
56861;DHT22;42744;51.094;3.490;2023-05-17T11:22:48;17.70;98.50
56861;DHT22;42744;51.094;3.490;2023-05-17T11:25:15;17.90;93.50
56861;DHT22;42744;51.094;3.490;2023-05-17T11:27:49;17.70;98.10
56861;DHT22;42744;51.094;3.490;2023-05-17T11:30:24;17.80;95.40
56861;DHT22;42744;51.094;3.490;2023-05-17T11:33:01;17.80;96.60
56861;DHT22;42744;51.094;3.490;2023-05-17T11:35:31;18.00;96.30
56861;DHT22;42744;51.094;3.490;2023-05-17T11:38:17;18.30;93.30
56861;DHT22;42744;51.094;3.490;2023-05-17T11:40:45;18.20;93.20
56861;DHT22;42744;51.094;3.490;2023-05-17T11:43:16;18.30;94.60
56861;DHT22;42744;51.094;3.490;2023-05-17T11:45:45;18.60;95.80
56861;DHT22;42744;51.094;3.490;2023-05-17T11:48:13;18.70;95.60
56861;DHT22;42744;51.094;3.490;2023-05-17T11:50:40;18.50;95.50
56861;DHT22;42744;51.094;3.490;2023-05-17T11:53:07;18.70;95.10
56861;DHT22;42744;51.094;3.490;2023-05-17T11:55:37;18.80;92.80
56861;DHT22;42744;51.094;3.490;2023-05-17T11:58:08;18.70;95.30
56861;DHT22;42744;51.094;3.490;2023-05-17T12:00:36;19.00;94.30
56861;DHT22;42744;51.094;3.490;2023-05-17T12:03:26;19.00;92.60
56861;DHT22;42744;51.094;3.490;2023-05-17T12:06:10;19.00;94.00
56861;DHT22;42744;51.094;3.490;2023-05-17T12:08:43;19.00;92.90
56861;DHT22;42744;51.094;3.490;2023-05-17T12:11:17;19.20;94.50
56861;DHT22;42744;51.094;3.490;2023-05-17T12:13:43;19.30;93.80
56861;DHT22;42744;51.094;3.490;2023-05-17T12:16:13;19.40;93.30
56861;DHT22;42744;51.094;3.490;2023-05-17T12:18:40;19.50;91.10
56861;DHT22;42744;51.094;3.490;2023-05-17T12:21:09;19.20;88.70
56861;DHT22;42744;51.094;3.490;2023-05-17T12:23:39;18.70;92.00
56861;DHT22;42744;51.094;3.490;2023-05-17T12:26:10;18.70;91.10
56861;DHT22;42744;51.094;3.490;2023-05-17T12:28:38;18.80;91.20
56861;DHT22;42744;51.094;3.490;2023-05-17T12:31:08;18.90;93.30
56861;DHT22;42744;51.094;3.490;2023-05-17T12:33:36;19.10;91.20
56861;DHT22;42744;51.094;3.490;2023-05-17T12:36:04;19.20;91.10
56861;DHT22;42744;51.094;3.490;2023-05-17T12:38:31;19.40;91.80
56861;DHT22;42744;51.094;3.490;2023-05-17T12:41:00;19.20;88.50
56861;DHT22;42744;51.094;3.490;2023-05-17T12:43:27;19.00;89.50
56861;DHT22;42744;51.094;3.490;2023-05-17T12:46:02;19.00;86.80
56861;DHT22;42744;51.094;3.490;2023-05-17T12:48:28;19.10;89.60
56861;DHT22;42744;51.094;3.490;2023-05-17T12:50:54;19.20;90.40
56861;DHT22;42744;51.094;3.490;2023-05-17T12:53:21;19.00;86.10
56861;DHT22;42744;51.094;3.490;2023-05-17T12:55:48;18.50;86.50
56861;DHT22;42744;51.094;3.490;2023-05-17T12:58:14;18.50;91.80
56861;DHT22;42744;51.094;3.490;2023-05-17T13:00:40;19.10;93.50
56861;DHT22;42744;51.094;3.490;2023-05-17T13:03:20;19.20;90.10
56861;DHT22;42744;51.094;3.490;2023-05-17T13:05:57;19.10;87.40
56861;DHT22;42744;51.094;3.490;2023-05-17T13:08:23;19.20;90.60
56861;DHT22;42744;51.094;3.490;2023-05-17T13:10:49;19.30;85.60
56861;DHT22;42744;51.094;3.490;2023-05-17T13:13:19;19.50;91.00
56861;DHT22;42744;51.094;3.490;2023-05-17T13:15:46;19.90;90.60
56861;DHT22;42744;51.094;3.490;2023-05-17T13:18:12;19.80;87.60
56861;DHT22;42744;51.094;3.490;2023-05-17T13:20:42;19.60;89.60
56861;DHT22;42744;51.094;3.490;2023-05-17T13:23:09;19.40;89.50
56861;DHT22;42744;51.094;3.490;2023-05-17T13:25:35;19.40;88.60
56861;DHT22;42744;51.094;3.490;2023-05-17T13:28:01;19.30;86.70
56861;DHT22;42744;51.094;3.490;2023-05-17T13:30:28;19.20;89.30
56861;DHT22;42744;51.094;3.490;2023-05-17T13:32:54;19.00;90.80
56861;DHT22;42744;51.094;3.490;2023-05-17T13:35:21;19.00;90.30
56861;DHT22;42744;51.094;3.490;2023-05-17T13:37:47;19.10;91.00
56861;DHT22;42744;51.094;3.490;2023-05-17T13:40:13;19.40;88.80
56861;DHT22;42744;51.094;3.490;2023-05-17T13:42:39;19.80;90.50
56861;DHT22;42744;51.094;3.490;2023-05-17T13:45:06;19.80;88.50
56861;DHT22;42744;51.094;3.490;2023-05-17T13:47:34;19.40;85.60
56861;DHT22;42744;51.094;3.490;2023-05-17T13:50:00;19.30;85.30
56861;DHT22;42744;51.094;3.490;2023-05-17T13:52:26;19.60;87.10
56861;DHT22;42744;51.094;3.490;2023-05-17T13:54:53;19.80;83.20
56861;DHT22;42744;51.094;3.490;2023-05-17T13:57:19;19.80;87.90
56861;DHT22;42744;51.094;3.490;2023-05-17T13:59:45;19.70;90.00
56861;DHT22;42744;51.094;3.490;2023-05-17T14:02:11;19.80;89.60
56861;DHT22;42744;51.094;3.490;2023-05-17T14:04:37;19.90;84.10
56861;DHT22;42744;51.094;3.490;2023-05-17T14:07:03;20.00;90.40
56861;DHT22;42744;51.094;3.490;2023-05-17T14:09:29;20.00;87.80
56861;DHT22;42744;51.094;3.490;2023-05-17T14:12:01;19.90;86.80
56861;DHT22;42744;51.094;3.490;2023-05-17T14:14:28;19.90;90.10
56861;DHT22;42744;51.094;3.490;2023-05-17T14:16:54;20.00;83.10
56861;DHT22;42744;51.094;3.490;2023-05-17T14:19:20;20.10;86.40
56861;DHT22;42744;51.094;3.490;2023-05-17T14:21:46;19.90;84.80
56861;DHT22;42744;51.094;3.490;2023-05-17T14:24:12;19.60;86.00
56861;DHT22;42744;51.094;3.490;2023-05-17T14:26:38;19.50;88.00
56861;DHT22;42744;51.094;3.490;2023-05-17T14:29:04;19.40;84.90
56861;DHT22;42744;51.094;3.490;2023-05-17T14:31:32;19.20;82.50
56861;DHT22;42744;51.094;3.490;2023-05-17T14:33:59;19.10;88.00
56861;DHT22;42744;51.094;3.490;2023-05-17T14:36:27;19.10;86.40
56861;DHT22;42744;51.094;3.490;2023-05-17T14:38:53;19.20;88.00
56861;DHT22;42744;51.094;3.490;2023-05-17T14:41:19;19.10;89.30
56861;DHT22;42744;51.094;3.490;2023-05-17T14:43:46;19.00;88.10
56861;DHT22;42744;51.094;3.490;2023-05-17T14:46:12;18.90;87.60
56861;DHT22;42744;51.094;3.490;2023-05-17T14:48:39;18.50;85.50
56861;DHT22;42744;51.094;3.490;2023-05-17T14:51:05;18.50;91.20
56861;DHT22;42744;51.094;3.490;2023-05-17T14:53:31;18.70;90.30
56861;DHT22;42744;51.094;3.490;2023-05-17T14:55:57;18.70;86.40
56861;DHT22;42744;51.094;3.490;2023-05-17T14:58:24;18.50;87.70
56861;DHT22;42744;51.094;3.490;2023-05-17T15:00:52;18.00;89.40
56861;DHT22;42744;51.094;3.490;2023-05-17T15:03:22;17.90;89.10
56861;DHT22;42744;51.094;3.490;2023-05-17T15:05:57;17.80;89.70
56861;DHT22;42744;51.094;3.490;2023-05-17T15:08:23;17.80;89.20
56861;DHT22;42744;51.094;3.490;2023-05-17T15:10:50;17.60;90.10
56861;DHT22;42744;51.094;3.490;2023-05-17T15:13:16;17.30;90.10
56861;DHT22;42744;51.094;3.490;2023-05-17T15:15:44;17.30;90.80
56861;DHT22;42744;51.094;3.490;2023-05-17T15:18:11;17.30;91.70
56861;DHT22;42744;51.094;3.490;2023-05-17T15:20:39;17.20;89.30
56861;DHT22;42744;51.094;3.490;2023-05-17T15:23:06;17.10;90.90
56861;DHT22;42744;51.094;3.490;2023-05-17T15:25:32;17.20;91.30
56861;DHT22;42744;51.094;3.490;2023-05-17T15:27:58;17.30;91.50
56861;DHT22;42744;51.094;3.490;2023-05-17T15:30:24;17.30;92.60
56861;DHT22;42744;51.094;3.490;2023-05-17T15:32:53;17.40;91.00
56861;DHT22;42744;51.094;3.490;2023-05-17T15:35:19;17.40;93.60
56861;DHT22;42744;51.094;3.490;2023-05-17T15:37:46;17.40;93.10
56861;DHT22;42744;51.094;3.490;2023-05-17T15:40:13;17.50;93.20
56861;DHT22;42744;51.094;3.490;2023-05-17T15:42:40;17.60;92.50
56861;DHT22;42744;51.094;3.490;2023-05-17T15:45:06;17.50;91.50
56861;DHT22;42744;51.094;3.490;2023-05-17T15:47:32;17.50;92.30
56861;DHT22;42744;51.094;3.490;2023-05-17T15:49:58;17.50;91.90
56861;DHT22;42744;51.094;3.490;2023-05-17T15:52:24;17.50;91.80
56861;DHT22;42744;51.094;3.490;2023-05-17T15:54:50;17.40;91.00
56861;DHT22;42744;51.094;3.490;2023-05-17T15:57:18;17.20;91.10
56861;DHT22;42744;51.094;3.490;2023-05-17T15:59:45;17.10;91.30
56861;DHT22;42744;51.094;3.490;2023-05-17T16:02:11;17.10;90.50
56861;DHT22;42744;51.094;3.490;2023-05-17T16:04:37;17.00;91.10
56861;DHT22;42744;51.094;3.490;2023-05-17T16:07:03;17.10;92.90